Time;durP1;ratioP1;P1;durP2;ratioP2;P2;SDS_P1;SDS_P2;PMS_P1;PMS_P2;Temp;Humidity;BMP_temperature;BMP_pressure;BME280_temperature;BME280_humidity;BME280_pressure;Samples;Min_cycle;Max_cycle;Signal;HPM_P1;HPM_P2
2022/04/03 00:00:56;;;;;;;;;;;1.00;99.90;;;;;;5057963;28;19916;-74
2022/04/03 00:03:21;;;;;;;;;;;0.90;99.90;;;;;;5076565;28;19912;-74
2022/04/03 00:05:47;;;;;;;;;;;0.80;99.90;;;;;;5058761;28;19943;-74
2022/04/03 00:08:13;;;;;;;;;;;0.80;99.90;;;;;;5076377;28;19922;-74
2022/04/03 00:10:39;;;;;;;;;;;0.70;99.90;;;;;;5041635;28;19913;-74
2022/04/03 00:13:05;;;;;;;;;;;0.60;99.90;;;;;;5057897;28;19912;-74
2022/04/03 00:15:31;;;;;;;;;;;0.60;99.90;;;;;;5076881;28;19921;-74
2022/04/03 00:17:57;;;;;;;;;;;0.50;99.90;;;;;;5076168;28;20204;-74
2022/04/03 00:20:22;;;;;;;;;;;0.40;99.90;;;;;;5059165;28;19917;-74
2022/04/03 00:22:49;;;;;;;;;;;0.30;99.90;;;;;;5075986;28;19908;-74
2022/04/03 00:25:15;;;;;;;;;;;0.30;99.90;;;;;;5076613;28;19912;-74
2022/04/03 00:27:41;;;;;;;;;;;0.30;99.90;;;;;;5058461;28;19955;-73
2022/04/03 00:30:07;;;;;;;;;;;0.20;99.90;;;;;;5075946;28;19948;-74
2022/04/03 00:32:33;;;;;;;;;;;0.10;99.90;;;;;;5076331;28;20307;-74
2022/04/03 00:34:59;;;;;;;;;;;0.10;99.90;;;;;;5058724;28;19915;-74
2022/04/03 00:37:24;;;;;;;;;;;0.20;99.90;;;;;;5058215;28;19950;-74
2022/04/03 00:39:50;;;;;;;;;;;0.20;99.90;;;;;;5076116;28;19915;-74
2022/04/03 00:42:16;;;;;;;;;;;0.20;99.90;;;;;;5075964;28;19970;-75
2022/04/03 00:44:42;;;;;;;;;;;0.20;99.90;;;;;;5076225;28;20315;-74
2022/04/03 00:47:07;;;;;;;;;;;0.20;99.90;;;;;;5076044;28;20003;-74
2022/04/03 00:49:33;;;;;;;;;;;0.20;99.90;;;;;;5075721;28;19922;-74
2022/04/03 00:51:58;;;;;;;;;;;0.20;99.90;;;;;;5076177;28;20307;-75
2022/04/03 00:54:24;;;;;;;;;;;0.20;99.90;;;;;;5058131;28;20315;-74
2022/04/03 00:56:51;;;;;;;;;;;0.20;99.90;;;;;;5076243;28;19924;-74
2022/04/03 00:59:16;;;;;;;;;;;0.30;99.90;;;;;;5075940;28;19916;-75
2022/04/03 01:01:42;;;;;;;;;;;0.30;99.90;;;;;;5074458;28;20019;-74
2022/04/03 01:04:08;;;;;;;;;;;0.20;99.90;;;;;;5073398;28;19995;-74
2022/04/03 01:06:34;;;;;;;;;;;0.10;99.90;;;;;;5073444;28;20065;-74
2022/04/03 01:08:59;;;;;;;;;;;0.00;99.90;;;;;;5075926;28;19920;-74
2022/04/03 01:11:25;;;;;;;;;;;-0.10;99.90;;;;;;5057148;28;19939;-74
2022/04/03 01:13:51;;;;;;;;;;;-0.10;99.90;;;;;;5066491;28;19930;-74
2022/04/03 01:16:17;;;;;;;;;;;-0.20;99.90;;;;;;5075801;28;19916;-74
2022/04/03 01:18:43;;;;;;;;;;;-0.20;99.90;;;;;;5075300;28;20019;-74
2022/04/03 01:21:10;;;;;;;;;;;-0.20;99.90;;;;;;5075415;28;20008;-74
2022/04/03 01:23:35;;;;;;;;;;;-0.20;99.90;;;;;;5075094;28;19912;-75
2022/04/03 01:26:01;;;;;;;;;;;-0.20;99.90;;;;;;5074639;28;19975;-74
2022/04/03 01:28:26;;;;;;;;;;;-0.20;99.90;;;;;;5074841;28;20208;-75
2022/04/03 01:30:52;;;;;;;;;;;-0.10;99.90;;;;;;5075161;28;19943;-75
2022/04/03 01:33:18;;;;;;;;;;;-0.10;99.90;;;;;;5057106;28;19919;-75
2022/04/03 01:35:44;;;;;;;;;;;-0.10;99.90;;;;;;5057186;28;19939;-75
2022/04/03 01:38:10;;;;;;;;;;;0.00;99.90;;;;;;5075439;28;19916;-74
2022/04/03 01:40:35;;;;;;;;;;;0.00;99.90;;;;;;5075330;28;20412;-75
2022/04/03 01:43:06;;;;;;;;;;;0.00;99.90;;;;;;5057349;28;19917;-75
2022/04/03 01:45:32;;;;;;;;;;;0.00;99.90;;;;;;5049781;28;20028;-75
2022/04/03 01:47:59;;;;;;;;;;;0.10;99.90;;;;;;5057305;28;20230;-75
2022/04/03 01:50:25;;;;;;;;;;;0.10;99.90;;;;;;5075236;28;19917;-78
2022/04/03 01:52:51;;;;;;;;;;;0.10;99.90;;;;;;5057203;28;19916;-74
2022/04/03 01:55:17;;;;;;;;;;;0.10;99.90;;;;;;5075198;28;20279;-74
2022/04/03 01:57:42;;;;;;;;;;;0.00;99.90;;;;;;5075137;28;19955;-75
2022/04/03 02:00:10;;;;;;;;;;;0.00;99.90;;;;;;5074763;28;19920;-75
2022/04/03 02:02:36;;;;;;;;;;;0.00;99.90;;;;;;5075442;28;19952;-75
2022/04/03 02:05:02;;;;;;;;;;;0.10;99.90;;;;;;5073835;28;20266;-75
2022/04/03 02:07:29;;;;;;;;;;;0.10;99.90;;;;;;5074272;28;19959;-75
2022/04/03 02:09:54;;;;;;;;;;;0.10;99.90;;;;;;5075011;28;20215;-75
2022/04/03 02:12:20;;;;;;;;;;;0.10;99.90;;;;;;5075341;28;19913;-76
2022/04/03 02:14:45;;;;;;;;;;;0.20;99.90;;;;;;5074649;28;19936;-75
2022/04/03 02:17:11;;;;;;;;;;;0.20;99.90;;;;;;5057343;28;19913;-75
2022/04/03 02:19:37;;;;;;;;;;;0.10;99.90;;;;;;5057185;28;19959;-75
2022/04/03 02:22:02;;;;;;;;;;;0.00;99.90;;;;;;5074813;28;19923;-75
2022/04/03 02:24:28;;;;;;;;;;;0.00;99.90;;;;;;5074967;28;19951;-75
2022/04/03 02:26:54;;;;;;;;;;;0.00;99.90;;;;;;5056773;28;19916;-76
2022/04/03 02:29:19;;;;;;;;;;;0.10;99.90;;;;;;5074906;28;19913;-75
2022/04/03 02:31:45;;;;;;;;;;;0.10;99.90;;;;;;5056794;28;19935;-75
2022/04/03 02:34:10;;;;;;;;;;;0.10;99.90;;;;;;5074279;28;20338;-75
2022/04/03 02:36:40;;;;;;;;;;;0.10;99.90;;;;;;5076475;28;19924;-75
2022/04/03 02:39:06;;;;;;;;;;;0.20;99.90;;;;;;5077793;28;20219;-76
2022/04/03 02:41:32;;;;;;;;;;;0.10;99.90;;;;;;5078233;28;20286;-75
2022/04/03 02:43:58;;;;;;;;;;;0.10;99.90;;;;;;5060654;28;19948;-75
2022/04/03 02:46:23;;;;;;;;;;;0.10;99.90;;;;;;5077958;28;19928;-75
2022/04/03 02:48:49;;;;;;;;;;;0.20;99.90;;;;;;5078849;28;19913;-75
2022/04/03 02:51:15;;;;;;;;;;;0.30;99.90;;;;;;5078258;28;19913;-75
2022/04/03 02:53:40;;;;;;;;;;;0.40;99.90;;;;;;5060642;28;19920;-75
2022/04/03 02:56:06;;;;;;;;;;;0.50;99.90;;;;;;5059992;28;19961;-76
2022/04/03 02:58:31;;;;;;;;;;;0.50;99.90;;;;;;5051417;28;19912;-75
2022/04/03 03:00:57;;;;;;;;;;;0.40;99.90;;;;;;5060456;28;19928;-76
2022/04/03 03:03:22;;;;;;;;;;;0.40;99.90;;;;;;5078202;28;19916;-75
2022/04/03 03:05:48;;;;;;;;;;;0.40;99.90;;;;;;5056825;28;20016;-75
2022/04/03 03:08:13;;;;;;;;;;;0.40;99.90;;;;;;5057635;28;19917;-76
2022/04/03 03:10:39;;;;;;;;;;;0.50;99.90;;;;;;5077475;28;19917;-75
2022/04/03 03:13:05;;;;;;;;;;;0.60;99.90;;;;;;5078230;28;19957;-76
2022/04/03 03:15:31;;;;;;;;;;;0.60;99.90;;;;;;5077636;28;19923;-75
2022/04/03 03:17:57;;;;;;;;;;;0.50;99.90;;;;;;5075763;28;19940;-75
2022/04/03 03:20:23;;;;;;;;;;;0.40;99.90;;;;;;5058793;28;20361;-75
2022/04/03 03:22:48;;;;;;;;;;;0.40;99.90;;;;;;5076940;28;19916;-75
2022/04/03 03:25:14;;;;;;;;;;;0.30;99.90;;;;;;5076985;28;19913;-75
2022/04/03 03:27:40;;;;;;;;;;;0.20;99.90;;;;;;5058442;28;19969;-75
2022/04/03 03:30:06;;;;;;;;;;;0.20;99.90;;;;;;5058738;28;19916;-75
2022/04/03 03:32:32;;;;;;;;;;;0.00;99.90;;;;;;5076400;28;19912;-76
2022/04/03 03:34:58;;;;;;;;;;;0.00;99.90;;;;;;5057946;28;20327;-75
2022/04/03 03:37:24;;;;;;;;;;;-0.10;99.90;;;;;;5057142;28;19957;-75
2022/04/03 03:39:49;;;;;;;;;;;-0.30;99.90;;;;;;5074950;28;19913;-75
2022/04/03 03:42:15;;;;;;;;;;;-0.40;99.90;;;;;;5076245;28;19917;-75
2022/04/03 03:44:40;;;;;;;;;;;-0.40;99.90;;;;;;5072946;28;20007;-75
2022/04/03 03:47:07;;;;;;;;;;;-0.40;99.90;;;;;;5075338;28;19973;-74
2022/04/03 03:49:33;;;;;;;;;;;-0.50;99.90;;;;;;5057291;28;20262;-75
2022/04/03 03:51:59;;;;;;;;;;;-0.50;99.90;;;;;;5051886;28;19913;-75
2022/04/03 03:54:25;;;;;;;;;;;-0.60;99.90;;;;;;5076393;28;19962;-75
2022/04/03 03:56:51;;;;;;;;;;;-0.60;99.90;;;;;;5072127;28;19908;-74
2022/04/03 03:59:16;;;;;;;;;;;-0.70;99.90;;;;;;5067448;28;20383;-74
2022/04/03 04:01:42;;;;;;;;;;;-0.70;99.90;;;;;;5052717;28;19908;-76
2022/04/03 04:04:08;;;;;;;;;;;-0.80;99.90;;;;;;5075013;28;20001;-75
2022/04/03 04:06:33;;;;;;;;;;;-0.80;99.90;;;;;;5073463;28;19916;-75
2022/04/03 04:08:59;;;;;;;;;;;-0.90;99.90;;;;;;5076718;28;19923;-74
2022/04/03 04:11:24;;;;;;;;;;;-0.90;99.90;;;;;;5058706;28;19913;-74
2022/04/03 04:13:50;;;;;;;;;;;-1.00;99.90;;;;;;5058181;28;19913;-74
2022/04/03 04:16:16;;;;;;;;;;;-1.10;99.90;;;;;;5071758;28;20310;-75
2022/04/03 04:18:42;;;;;;;;;;;-1.20;99.90;;;;;;5068210;28;19913;-75
2022/04/03 04:21:07;;;;;;;;;;;-1.20;99.90;;;;;;5058565;28;20021;-75
2022/04/03 04:23:33;;;;;;;;;;;-1.20;99.90;;;;;;5066571;28;19923;-74
2022/04/03 04:25:58;;;;;;;;;;;-1.30;99.90;;;;;;5073878;28;19916;-75
2022/04/03 04:28:24;;;;;;;;;;;-1.30;99.90;;;;;;5055823;28;19920;-75
2022/04/03 04:30:50;;;;;;;;;;;-1.30;99.90;;;;;;5072843;28;20311;-75
2022/04/03 04:33:16;;;;;;;;;;;-1.40;99.90;;;;;;5074131;28;19943;-75
2022/04/03 04:35:41;;;;;;;;;;;-1.40;99.90;;;;;;5074006;28;20271;-75
2022/04/03 04:38:07;;;;;;;;;;;-1.50;99.90;;;;;;5056980;28;20084;-74
2022/04/03 04:40:33;;;;;;;;;;;-1.50;99.90;;;;;;5056122;28;19925;-75
2022/04/03 04:42:59;;;;;;;;;;;-1.60;99.90;;;;;;5074503;28;19912;-75
2022/04/03 04:45:27;;;;;;;;;;;-1.60;99.90;;;;;;5055833;28;20372;-75
2022/04/03 04:47:59;;;;;;;;;;;-1.70;99.90;;;;;;5072262;28;19928;-76
2022/04/03 04:50:25;;;;;;;;;;;-1.70;99.90;;;;;;5075177;28;19912;-75
2022/04/03 04:52:51;;;;;;;;;;;-1.70;99.90;;;;;;5055837;28;19923;-75
2022/04/03 04:55:19;;;;;;;;;;;-1.70;99.90;;;;;;5057002;28;20014;-75
2022/04/03 04:57:52;;;;;;;;;;;-1.70;99.90;;;;;;5072858;28;20345;-75
2022/04/03 05:00:20;;;;;;;;;;;-1.70;99.90;;;;;;5055682;28;19912;-76
2022/04/03 05:02:46;;;;;;;;;;;-1.70;99.90;;;;;;5073530;28;19913;-75
2022/04/03 05:05:13;;;;;;;;;;;-1.70;99.90;;;;;;5057298;28;20212;-74
2022/04/03 05:07:39;;;;;;;;;;;-1.70;99.90;;;;;;5073277;28;19937;-75
2022/04/03 05:10:04;;;;;;;;;;;-1.70;99.90;;;;;;5055552;28;19921;-75
2022/04/03 05:12:30;;;;;;;;;;;-1.70;99.90;;;;;;5073541;28;20586;-75
2022/04/03 05:14:56;;;;;;;;;;;-1.70;99.90;;;;;;5056315;28;20265;-75
2022/04/03 05:17:30;;;;;;;;;;;-1.70;99.90;;;;;;5073294;28;19995;-76
2022/04/03 05:19:56;;;;;;;;;;;-1.60;99.90;;;;;;5065281;28;19962;-75
2022/04/03 05:22:23;;;;;;;;;;;-1.70;99.90;;;;;;5073927;28;20300;-76
2022/04/03 05:24:49;;;;;;;;;;;-1.60;99.90;;;;;;5072706;28;19926;-76
2022/04/03 05:27:15;;;;;;;;;;;-1.50;99.90;;;;;;5056529;28;20319;-77
2022/04/03 05:29:40;;;;;;;;;;;-1.50;99.90;;;;;;5055294;28;19912;-76
2022/04/03 05:32:07;;;;;;;;;;;-1.50;99.90;;;;;;5055703;28;19923;-76
2022/04/03 05:34:32;;;;;;;;;;;-1.60;99.90;;;;;;5055473;28;20307;-76
2022/04/03 05:36:58;;;;;;;;;;;-1.60;99.90;;;;;;5070708;28;19917;-76
2022/04/03 05:39:24;;;;;;;;;;;-1.60;99.90;;;;;;5074206;28;19919;-76
2022/04/03 05:41:53;;;;;;;;;;;-1.50;99.90;;;;;;5055053;28;19962;-75
2022/04/03 05:44:19;;;;;;;;;;;-1.40;99.90;;;;;;5071931;28;20299;-76
2022/04/03 05:46:44;;;;;;;;;;;-1.50;99.90;;;;;;5072958;28;20019;-75
2022/04/03 05:49:10;;;;;;;;;;;-1.30;99.90;;;;;;5058413;28;20311;-76
2022/04/03 05:51:35;;;;;;;;;;;-1.30;99.90;;;;;;5073315;28;19944;-76
2022/04/03 05:54:01;;;;;;;;;;;-1.10;99.90;;;;;;5073450;28;19970;-76
2022/04/03 05:56:27;;;;;;;;;;;-1.20;99.90;;;;;;5074148;28;20248;-76
2022/04/03 05:58:53;;;;;;;;;;;-1.20;99.90;;;;;;5039407;28;20343;-76
2022/04/03 06:01:19;;;;;;;;;;;-1.10;99.90;;;;;;5056058;28;19999;-77
2022/04/03 06:03:45;;;;;;;;;;;-1.00;99.90;;;;;;5074250;28;20054;-76
2022/04/03 06:06:10;;;;;;;;;;;-0.90;99.90;;;;;;5073133;28;20014;-76
2022/04/03 06:08:36;;;;;;;;;;;-0.90;99.90;;;;;;5073804;28;19920;-77
2022/04/03 06:11:01;;;;;;;;;;;-0.80;99.90;;;;;;5058517;28;19938;-75
2022/04/03 06:13:27;;;;;;;;;;;-0.70;99.90;;;;;;5077164;28;19939;-75
2022/04/03 06:15:52;;;;;;;;;;;-0.70;99.90;;;;;;5077570;28;19917;-75
2022/04/03 06:18:21;;;;;;;;;;;-0.60;99.90;;;;;;5059129;28;19966;-75
2022/04/03 06:20:47;;;;;;;;;;;-0.50;99.90;;;;;;5077345;28;20293;-75
2022/04/03 06:23:17;;;;;;;;;;;-0.30;99.90;;;;;;5060246;28;20011;-75
2022/04/03 06:25:43;;;;;;;;;;;-0.50;99.90;;;;;;5076122;28;20189;-75
2022/04/03 06:28:09;;;;;;;;;;;-0.50;99.90;;;;;;5076221;28;19923;-75
2022/04/03 06:30:35;;;;;;;;;;;-0.50;99.90;;;;;;5077346;28;20002;-77
2022/04/03 06:33:01;;;;;;;;;;;-0.40;99.90;;;;;;5058969;28;20004;-77
2022/04/03 06:35:27;;;;;;;;;;;-0.40;99.90;;;;;;5077819;28;19966;-75
2022/04/03 06:37:52;;;;;;;;;;;-0.20;99.90;;;;;;5078020;28;19928;-77
2022/04/03 06:40:18;;;;;;;;;;;0.10;99.90;;;;;;5077092;28;19912;-75
2022/04/03 06:42:43;;;;;;;;;;;0.30;99.90;;;;;;5077023;28;19913;-76
2022/04/03 06:45:09;;;;;;;;;;;0.60;99.90;;;;;;5059386;28;19927;-76
2022/04/03 06:47:35;;;;;;;;;;;0.80;99.90;;;;;;5076471;28;20213;-75
2022/04/03 06:50:01;;;;;;;;;;;1.30;99.90;;;;;;5078329;28;19916;-76
2022/04/03 06:52:27;;;;;;;;;;;2.10;99.90;;;;;;5059274;28;19928;-75
2022/04/03 06:54:53;;;;;;;;;;;2.40;99.90;;;;;;5077249;28;20011;-76
2022/04/03 06:57:18;;;;;;;;;;;2.60;99.90;;;;;;5075764;28;19912;-76
2022/04/03 06:59:44;;;;;;;;;;;3.10;99.90;;;;;;5077243;28;19912;-78
2022/04/03 07:02:10;;;;;;;;;;;3.80;99.90;;;;;;5061420;28;20278;-77
2022/04/03 07:04:36;;;;;;;;;;;4.70;99.90;;;;;;5059277;28;19916;-78
2022/04/03 07:07:02;;;;;;;;;;;5.40;99.90;;;;;;5058950;28;19921;-76
2022/04/03 07:09:27;;;;;;;;;;;5.90;99.90;;;;;;5076909;28;19995;-77
2022/04/03 07:11:53;;;;;;;;;;;6.10;99.90;;;;;;5059536;28;19989;-80
2022/04/03 07:14:18;;;;;;;;;;;6.40;99.90;;;;;;5058497;28;20031;-77
2022/04/03 07:16:44;;;;;;;;;;;6.50;99.90;;;;;;5075426;28;19920;-77
2022/04/03 07:19:10;;;;;;;;;;;6.00;99.90;;;;;;5076730;28;20311;-77
2022/04/03 07:21:36;;;;;;;;;;;5.50;99.90;;;;;;5076088;28;19989;-78
2022/04/03 07:24:04;;;;;;;;;;;5.20;99.90;;;;;;5058092;28;19913;-77
2022/04/03 07:26:30;;;;;;;;;;;5.50;99.90;;;;;;5057451;28;20192;-77
2022/04/03 07:28:56;;;;;;;;;;;6.40;99.90;;;;;;5073568;28;19943;-77
2022/04/03 07:31:22;;;;;;;;;;;7.30;99.90;;;;;;5055799;28;20001;-76
2022/04/03 07:33:47;;;;;;;;;;;7.60;99.90;;;;;;5075510;28;19920;-76
2022/04/03 07:36:13;;;;;;;;;;;7.90;99.90;;;;;;5057503;28;19993;-76
2022/04/03 07:38:38;;;;;;;;;;;8.00;99.90;;;;;;5057503;28;20330;-77
2022/04/03 07:41:04;;;;;;;;;;;8.50;99.90;;;;;;5076118;28;19923;-77
2022/04/03 07:43:29;;;;;;;;;;;9.00;99.90;;;;;;5074578;28;19916;-77
2022/04/03 07:45:55;;;;;;;;;;;9.40;99.90;;;;;;5073757;28;19931;-76
2022/04/03 07:48:21;;;;;;;;;;;10.20;99.90;;;;;;5057079;28;20267;-80
2022/04/03 07:50:46;;;;;;;;;;;10.80;99.90;;;;;;5056874;28;19913;-77
2022/04/03 07:53:12;;;;;;;;;;;11.20;99.90;;;;;;5058408;28;19912;-77
2022/04/03 07:55:37;;;;;;;;;;;11.70;99.90;;;;;;5074679;28;19916;-77
2022/04/03 07:58:03;;;;;;;;;;;11.40;99.90;;;;;;5071161;28;19922;-76
2022/04/03 08:00:29;;;;;;;;;;;10.30;99.90;;;;;;5074221;28;20008;-77
2022/04/03 08:02:54;;;;;;;;;;;9.50;99.90;;;;;;5075545;28;20085;-76
2022/04/03 08:05:20;;;;;;;;;;;8.90;99.90;;;;;;5075511;28;19939;-76
2022/04/03 08:07:46;;;;;;;;;;;8.40;99.90;;;;;;5073934;28;19924;-76
2022/04/03 08:10:13;;;;;;;;;;;8.10;99.90;;;;;;5073852;28;19923;-76
2022/04/03 08:12:39;;;;;;;;;;;8.00;99.90;;;;;;5056202;28;19923;-76
2022/04/03 08:15:05;;;;;;;;;;;8.00;99.90;;;;;;5056644;28;20219;-78
2022/04/03 08:17:31;;;;;;;;;;;7.90;99.90;;;;;;5074176;28;19919;-76
2022/04/03 08:19:57;;;;;;;;;;;7.90;99.90;;;;;;5075121;28;19921;-76
2022/04/03 08:22:22;;;;;;;;;;;7.80;99.90;;;;;;5075740;28;19916;-76
2022/04/03 08:24:51;;;;;;;;;;;7.70;99.90;;;;;;5075747;28;19912;-76
2022/04/03 08:27:17;;;;;;;;;;;7.60;99.90;;;;;;5074918;28;19924;-75
2022/04/03 08:29:44;;;;;;;;;;;7.60;99.90;;;;;;5057670;28;20337;-76
2022/04/03 08:32:09;;;;;;;;;;;7.40;99.90;;;;;;5073823;28;19912;-75
2022/04/03 08:34:35;;;;;;;;;;;7.30;99.90;;;;;;5055777;28;19927;-79
2022/04/03 08:37:12;;;;;;;;;;;7.20;99.90;;;;;;5054992;28;19916;-76
2022/04/03 08:39:41;;;;;;;;;;;6.90;99.90;;;;;;5055463;28;20450;-78
2022/04/03 08:42:07;;;;;;;;;;;5.80;99.90;;;;;;5072013;28;20189;-77
2022/04/03 08:44:33;;;;;;;;;;;5.30;99.90;;;;;;5067216;28;19916;-78
2022/04/03 08:47:00;;;;;;;;;;;5.20;99.90;;;;;;5057104;28;20436;-75
2022/04/03 08:49:27;;;;;;;;;;;5.20;99.90;;;;;;5055236;28;19912;-75
2022/04/03 08:51:53;;;;;;;;;;;5.20;99.90;;;;;;5055705;28;20011;-75
2022/04/03 08:54:20;;;;;;;;;;;5.10;99.90;;;;;;5073964;28;19978;-76
2022/04/03 08:56:46;;;;;;;;;;;5.00;99.90;;;;;;5073948;28;19916;-75
2022/04/03 08:59:11;;;;;;;;;;;5.00;99.90;;;;;;5070612;28;19921;-80
2022/04/03 09:01:37;;;;;;;;;;;4.90;99.90;;;;;;5074152;28;19913;-75
2022/04/03 09:04:03;;;;;;;;;;;4.50;99.90;;;;;;5072767;28;19916;-77
2022/04/03 09:06:28;;;;;;;;;;;4.50;99.90;;;;;;5056048;28;19928;-77
2022/04/03 09:08:54;;;;;;;;;;;4.60;99.90;;;;;;5040012;28;19963;-75
2022/04/03 09:11:20;;;;;;;;;;;4.70;99.90;;;;;;5056184;28;19923;-75
2022/04/03 09:13:45;;;;;;;;;;;5.00;99.90;;;;;;5075125;28;19923;-76
2022/04/03 09:16:11;;;;;;;;;;;5.20;99.90;;;;;;5073758;28;20334;-76
2022/04/03 09:18:44;;;;;;;;;;;5.30;99.90;;;;;;5073069;28;19999;-76
2022/04/03 09:21:17;;;;;;;;;;;5.50;99.90;;;;;;5055744;28;19928;-76
2022/04/03 09:23:57;;;;;;;;;;;5.60;99.90;;;;;;5072553;28;20315;-76
2022/04/03 09:26:24;;;;;;;;;;;5.50;99.90;;;;;;5074332;28;19985;-75
2022/04/03 09:28:49;;;;;;;;;;;5.60;99.90;;;;;;5055687;28;19913;-76
2022/04/03 09:31:30;;;;;;;;;;;5.60;99.90;;;;;;5056811;28;19921;-75
2022/04/03 09:34:00;;;;;;;;;;;5.70;99.90;;;;;;5072091;28;20006;-75
2022/04/03 09:36:29;;;;;;;;;;;5.80;99.90;;;;;;5072429;28;19919;-77
2022/04/03 09:39:03;;;;;;;;;;;6.00;99.90;;;;;;5072458;28;19924;-76
2022/04/03 09:41:28;;;;;;;;;;;6.60;99.90;;;;;;5071443;28;20303;-77
2022/04/03 09:43:54;;;;;;;;;;;7.20;99.90;;;;;;5055984;28;19958;-76
2022/04/03 09:46:22;;;;;;;;;;;7.60;99.90;;;;;;5072914;28;19920;-77
2022/04/03 09:48:47;;;;;;;;;;;7.70;99.90;;;;;;5071923;28;20192;-76
2022/04/03 09:51:14;;;;;;;;;;;7.50;99.90;;;;;;5057212;28;19969;-75
2022/04/03 09:53:46;;;;;;;;;;;7.40;99.90;;;;;;5073184;28;20133;-76
2022/04/03 09:56:13;;;;;;;;;;;7.20;99.90;;;;;;5074180;28;19921;-76
2022/04/03 09:58:51;;;;;;;;;;;7.20;99.90;;;;;;5055131;28;19943;-76
2022/04/03 10:01:46;;;;;;;;;;;7.30;99.90;;;;;;5070492;28;19935;-76
2022/04/03 10:04:15;;;;;;;;;;;7.60;99.90;;;;;;5009358;28;19922;-76
2022/04/03 10:06:42;;;;;;;;;;;8.20;99.90;;;;;;4994368;28;19922;-76
2022/04/03 10:09:11;;;;;;;;;;;8.60;99.90;;;;;;5011072;28;19925;-76
2022/04/03 10:11:41;;;;;;;;;;;9.10;99.90;;;;;;5011093;28;19914;-76
2022/04/03 10:14:08;;;;;;;;;;;9.30;99.90;;;;;;5027161;28;19921;-77
2022/04/03 10:16:33;;;;;;;;;;;9.30;99.90;;;;;;5010648;28;19926;-77
2022/04/03 10:18:59;;;;;;;;;;;8.90;99.90;;;;;;4993927;28;19948;-78
2022/04/03 10:21:39;;;;;;;;;;;9.00;99.90;;;;;;4994183;28;19920;-79
2022/04/03 10:24:25;;;;;;;;;;;9.30;99.90;;;;;;5010840;28;20283;-77
2022/04/03 10:26:57;;;;;;;;;;;9.30;99.90;;;;;;5009059;28;19928;-76
2022/04/03 10:29:23;;;;;;;;;;;9.10;99.90;;;;;;5009392;28;19913;-79
2022/04/03 10:31:55;;;;;;;;;;;8.90;99.90;;;;;;5010437;28;19917;-76
2022/04/03 10:34:21;;;;;;;;;;;8.90;99.90;;;;;;5009812;28;20300;-76
2022/04/03 10:37:02;;;;;;;;;;;8.50;99.90;;;;;;5010087;28;19920;-77
2022/04/03 10:39:28;;;;;;;;;;;8.30;99.90;;;;;;4980418;28;19944;-78
2022/04/03 10:42:13;;;;;;;;;;;7.80;99.90;;;;;;5052997;28;19912;-75
2022/04/03 10:44:39;;;;;;;;;;;8.50;99.90;;;;;;5067550;28;19966;-74
2022/04/03 10:47:04;;;;;;;;;;;8.50;99.90;;;;;;5067234;28;19928;-76
2022/04/03 10:49:30;;;;;;;;;;;9.10;99.90;;;;;;5073149;28;19919;-75
2022/04/03 10:51:57;;;;;;;;;;;9.50;99.90;;;;;;5055423;28;20303;-76
2022/04/03 10:54:30;;;;;;;;;;;10.10;99.90;;;;;;5054643;28;19925;-76
2022/04/03 10:57:15;;;;;;;;;;;10.40;99.90;;;;;;5055730;28;20123;-75
2022/04/03 10:59:41;;;;;;;;;;;10.60;99.90;;;;;;5075846;28;19917;-76
2022/04/03 11:02:14;;;;;;;;;;;10.60;99.90;;;;;;5076798;28;19919;-74
2022/04/03 11:04:39;;;;;;;;;;;10.00;99.90;;;;;;5057161;28;19912;-75
2022/04/03 11:07:12;;;;;;;;;;;8.90;99.90;;;;;;5060037;28;20365;-76
2022/04/03 11:09:41;;;;;;;;;;;8.10;99.90;;;;;;5075398;28;19916;-75
2022/04/03 11:12:06;;;;;;;;;;;6.90;99.90;;;;;;5059186;28;19928;-76
2022/04/03 11:15:00;;;;;;;;;;;6.00;99.90;;;;;;5076294;28;19931;-75
2022/04/03 11:17:44;;;;;;;;;;;5.40;99.90;;;;;;5057523;28;19920;-76
2022/04/03 11:20:10;;;;;;;;;;;5.30;99.90;;;;;;5072845;28;19920;-76
2022/04/03 11:22:37;;;;;;;;;;;5.20;99.90;;;;;;5072370;28;19970;-74
2022/04/03 11:25:03;;;;;;;;;;;5.40;99.90;;;;;;5072566;28;19947;-74
2022/04/03 11:27:28;;;;;;;;;;;5.70;99.90;;;;;;5072596;28;19924;-74
2022/04/03 11:29:54;;;;;;;;;;;6.00;99.90;;;;;;5069580;28;19917;-77
2022/04/03 11:32:20;;;;;;;;;;;6.10;99.90;;;;;;5048928;28;19928;-75
2022/04/03 11:34:55;;;;;;;;;;;6.40;99.90;;;;;;5066865;28;19920;-74
2022/04/03 11:37:21;;;;;;;;;;;6.50;99.90;;;;;;5051601;28;20227;-74
2022/04/03 11:39:47;;;;;;;;;;;6.30;99.90;;;;;;5068889;28;19947;-74
2022/04/03 11:42:13;;;;;;;;;;;6.50;99.90;;;;;;5069144;28;19999;-76
2022/04/03 11:44:41;;;;;;;;;;;6.60;99.90;;;;;;5050238;28;20355;-75
2022/04/03 11:47:17;;;;;;;;;;;6.60;99.90;;;;;;5050580;28;19983;-76
2022/04/03 11:49:44;;;;;;;;;;;6.70;99.90;;;;;;5048214;28;19917;-78
2022/04/03 11:52:10;;;;;;;;;;;7.00;99.90;;;;;;5070074;28;20000;-75
2022/04/03 11:54:37;;;;;;;;;;;7.00;99.90;;;;;;5052597;28;20027;-75
2022/04/03 11:57:04;;;;;;;;;;;7.30;99.90;;;;;;5071220;28;19917;-75
2022/04/03 11:59:37;;;;;;;;;;;7.40;99.90;;;;;;5071484;28;19978;-76
2022/04/03 12:02:09;;;;;;;;;;;7.60;99.90;;;;;;5070356;28;19920;-75
2022/04/03 12:04:39;;;;;;;;;;;8.00;99.90;;;;;;5053218;28;19916;-74
2022/04/03 12:07:14;;;;;;;;;;;8.10;99.90;;;;;;5071077;28;19920;-75
2022/04/03 12:09:43;;;;;;;;;;;8.40;99.90;;;;;;5070329;28;19943;-75
2022/04/03 12:12:10;;;;;;;;;;;8.50;99.90;;;;;;5070406;28;20304;-75
2022/04/03 12:14:36;;;;;;;;;;;8.40;99.90;;;;;;5054182;28;19995;-75
2022/04/03 12:17:06;;;;;;;;;;;8.40;99.90;;;;;;5071712;28;20396;-76
2022/04/03 12:19:36;;;;;;;;;;;7.80;99.90;;;;;;5071769;28;20360;-75
2022/04/03 12:22:04;;;;;;;;;;;5.70;99.90;;;;;;5071720;28;19920;-75
2022/04/03 12:24:34;;;;;;;;;;;4.70;99.90;;;;;;5052951;28;19916;-78
2022/04/03 12:27:00;;;;;;;;;;;4.00;99.90;;;;;;5070425;28;19927;-74
2022/04/03 12:29:27;;;;;;;;;;;3.70;99.90;;;;;;5052308;28;20018;-74
2022/04/03 12:32:15;;;;;;;;;;;3.60;99.90;;;;;;5070659;28;20003;-79
2022/04/03 12:34:50;;;;;;;;;;;3.50;99.90;;;;;;5070741;28;19923;-75
2022/04/03 12:37:16;;;;;;;;;;;3.50;99.90;;;;;;5070438;28;20003;-75
2022/04/03 12:39:43;;;;;;;;;;;3.60;99.90;;;;;;5070714;28;19916;-79
2022/04/03 12:42:08;;;;;;;;;;;3.70;99.90;;;;;;5069160;28;19920;-75
2022/04/03 12:45:00;;;;;;;;;;;3.80;99.90;;;;;;5053038;28;19923;-74
2022/04/03 12:47:31;;;;;;;;;;;3.90;99.90;;;;;;5067519;28;19924;-75
2022/04/03 12:50:05;;;;;;;;;;;4.20;99.90;;;;;;5069067;28;19920;-75
2022/04/03 12:52:41;;;;;;;;;;;4.30;99.90;;;;;;5070391;28;19920;-75
2022/04/03 12:55:08;;;;;;;;;;;4.60;99.90;;;;;;5070524;28;19916;-75
2022/04/03 13:00:18;;;;;;;;;;;5.20;99.90;;;;;;5068624;28;19966;-76
2022/04/03 13:02:44;;;;;;;;;;;5.50;99.90;;;;;;5070474;28;19920;-74
2022/04/03 13:05:14;;;;;;;;;;;5.80;99.90;;;;;;5072720;28;20315;-78
2022/04/03 13:07:40;;;;;;;;;;;5.90;99.90;;;;;;5070523;28;19920;-77
2022/04/03 13:10:06;;;;;;;;;;;6.10;99.90;;;;;;5070848;28;19927;-75
2022/04/03 13:12:31;;;;;;;;;;;6.20;99.90;;;;;;5054442;28;20203;-76
2022/04/03 13:14:59;;;;;;;;;;;6.10;99.90;;;;;;5054172;28;19924;-76
2022/04/03 13:17:26;;;;;;;;;;;6.10;99.90;;;;;;5072064;28;20600;-76
2022/04/03 13:19:52;;;;;;;;;;;6.20;99.90;;;;;;5072920;28;19916;-76
2022/04/03 13:22:18;;;;;;;;;;;6.20;99.90;;;;;;5071212;28;20584;-77
2022/04/03 13:24:43;;;;;;;;;;;6.10;99.90;;;;;;5070443;28;19924;-76
2022/04/03 13:27:09;;;;;;;;;;;6.10;99.90;;;;;;5072298;28;19921;-75
2022/04/03 13:29:37;;;;;;;;;;;6.10;99.90;;;;;;5053918;28;19916;-75
2022/04/03 13:32:04;;;;;;;;;;;6.10;99.90;;;;;;5070414;28;19923;-77
2022/04/03 13:34:29;;;;;;;;;;;6.10;99.90;;;;;;5054164;28;19912;-77
2022/04/03 13:36:55;;;;;;;;;;;6.60;99.90;;;;;;5070924;28;20358;-77
2022/04/03 13:39:21;;;;;;;;;;;7.00;99.90;;;;;;5071034;28;19999;-77
2022/04/03 13:41:47;;;;;;;;;;;7.10;99.90;;;;;;5054061;28;20008;-77
2022/04/03 13:44:13;;;;;;;;;;;7.20;99.90;;;;;;5050856;28;19919;-74
2022/04/03 13:46:39;;;;;;;;;;;6.90;99.90;;;;;;5052974;28;19921;-78
2022/04/03 13:49:05;;;;;;;;;;;7.30;99.90;;;;;;5051490;28;19916;-75
2022/04/03 13:51:30;;;;;;;;;;;7.50;99.90;;;;;;5053096;28;19920;-76
2022/04/03 13:53:56;;;;;;;;;;;7.80;99.90;;;;;;5072824;28;19916;-76
2022/04/03 13:56:23;;;;;;;;;;;7.90;99.90;;;;;;5070329;28;19916;-75
2022/04/03 13:58:49;;;;;;;;;;;8.30;99.90;;;;;;5068191;28;19962;-77
2022/04/03 14:01:17;;;;;;;;;;;8.50;99.90;;;;;;5072894;28;19918;-76
2022/04/03 14:03:46;;;;;;;;;;;8.40;99.90;;;;;;5071430;28;20011;-76
2022/04/03 14:06:11;;;;;;;;;;;7.90;99.90;;;;;;5069452;28;19920;-76
2022/04/03 14:08:37;;;;;;;;;;;7.70;99.90;;;;;;5071375;28;20300;-75
2022/04/03 14:11:03;;;;;;;;;;;7.40;99.90;;;;;;5052574;28;20363;-76
2022/04/03 14:13:30;;;;;;;;;;;7.20;99.90;;;;;;5070185;28;19920;-78
2022/04/03 14:15:56;;;;;;;;;;;7.30;99.90;;;;;;5071619;28;19920;-76
2022/04/03 14:18:24;;;;;;;;;;;7.40;99.90;;;;;;5050741;28;19917;-76
2022/04/03 14:20:54;;;;;;;;;;;7.60;99.90;;;;;;5068663;28;19917;-76
2022/04/03 14:23:20;;;;;;;;;;;7.60;99.90;;;;;;5069290;28;19920;-76
2022/04/03 14:25:46;;;;;;;;;;;7.40;99.90;;;;;;5071768;28;19947;-76
2022/04/03 14:28:11;;;;;;;;;;;7.30;99.90;;;;;;5070207;28;20315;-78